createdAt,value
2023-09-08T00:10:40.332Z,3540.60278
2023-09-08T00:25:42.600Z,10540.47754
2023-09-08T00:40:44.902Z,1177.67065
2023-09-08T00:55:47.107Z,997.65839
2023-09-08T01:10:49.393Z,867.52899
2023-09-08T01:25:51.752Z,752.58142
2023-09-08T01:40:53.916Z,494.49155
2023-09-08T01:55:56.045Z,267.84958
2023-09-08T02:10:58.438Z,105.18789
2023-09-08T02:26:00.849Z,28.19469
2023-09-08T02:41:03.038Z,3.25323
2023-09-08T02:56:05.670Z,0
2023-09-08T03:11:07.848Z,0
2023-09-08T03:26:10.983Z,0
2023-09-08T03:41:13.208Z,0
2023-09-08T03:56:15.372Z,0
2023-09-08T04:11:17.530Z,0
2023-09-08T04:26:19.765Z,0
2023-09-08T04:41:21.892Z,0
2023-09-08T04:56:24.040Z,0
2023-09-08T05:11:26.173Z,0
2023-09-08T05:26:28.618Z,0
2023-09-08T05:41:30.799Z,0
2023-09-08T05:56:33.017Z,0
2023-09-08T06:11:35.162Z,0
2023-09-08T06:26:37.614Z,0
2023-09-08T06:41:39.799Z,0
2023-09-08T06:56:42.069Z,0
2023-09-08T07:11:44.324Z,0
2023-09-08T07:26:46.796Z,0
2023-09-08T07:41:48.949Z,0
2023-09-08T07:56:51.142Z,0
2023-09-08T08:11:53.378Z,0
2023-09-08T08:26:55.581Z,0
2023-09-08T08:41:57.760Z,0
2023-09-08T08:56:59.890Z,0
2023-09-08T09:12:02.345Z,0
2023-09-08T09:27:04.767Z,0
2023-09-08T09:42:08.981Z,0
2023-09-08T09:57:11.126Z,0
2023-09-08T10:12:13.521Z,0
2023-09-08T10:27:15.674Z,0
2023-09-08T10:42:17.956Z,0
2023-09-08T10:57:20.198Z,0
2023-09-08T11:12:22.380Z,0
2023-09-08T11:27:24.654Z,0
2023-09-08T11:42:26.782Z,0
2023-09-08T11:57:28.841Z,0
2023-09-08T12:12:30.929Z,0
2023-09-08T12:27:33.100Z,0
2023-09-08T12:42:37.459Z,0
2023-09-08T12:57:46.942Z,3.25323
2023-09-08T13:12:49.072Z,37.9544
2023-09-08T13:27:51.377Z,126.87612
2023-09-08T13:42:53.595Z,257.00546
2023-09-08T13:57:56.340Z,472.80331
2023-09-08T14:12:58.936Z,626.78973
2023-09-08T14:28:01.942Z,5451.33545
2023-09-08T14:43:04.483Z,5835.2168
2023-09-08T14:58:06.992Z,23934.04102
2023-09-08T15:13:09.081Z,45090.90625
2023-09-08T15:28:11.132Z,40383.47656
2023-09-08T15:43:13.821Z,28872.44922
2023-09-08T15:58:16.009Z,10620.72363
2023-09-08T16:13:18.127Z,20938.89648
2023-09-08T16:28:20.306Z,5354.82275
2023-09-08T16:43:22.482Z,5407.95898
2023-09-08T16:58:24.609Z,5518.56885
2023-09-08T17:13:26.646Z,6335.13037
2023-09-08T17:28:28.845Z,6835.04443
2023-09-08T17:43:31.700Z,7254.71143
2023-09-08T17:58:33.826Z,7567.02197
2023-09-08T18:13:36.296Z,7638.59277
2023-09-08T18:28:38.674Z,7526.89844
2023-09-08T18:43:41.056Z,7739.44336
2023-09-08T18:58:43.951Z,1895.5509
2023-09-08T19:13:46.149Z,1842.41479
2023-09-08T19:28:48.351Z,8525.6416
2023-09-08T19:43:50.420Z,9719.57812
2023-09-08T19:58:52.678Z,10644.58105
2023-09-08T20:13:55.642Z,3219.61694
2023-09-08T20:28:58.060Z,3928.82202
2023-09-08T20:44:00.286Z,3585.06372
2023-09-08T20:59:02.302Z,3462.52515
2023-09-08T21:14:04.420Z,2829.229
2023-09-08T21:29:06.684Z,2462.698
2023-09-08T21:44:08.758Z,3095.99414
2023-09-08T21:59:10.901Z,3375.77222
2023-09-08T22:14:13.097Z,9937.54492
2023-09-08T22:29:15.230Z,10158.76465
2023-09-08T22:44:17.368Z,7010.71875
2023-09-08T22:59:19.363Z,11092.44238
2023-09-08T23:14:21.552Z,11678.02441
2023-09-08T23:29:23.541Z,12373.13281
2023-09-08T23:44:25.743Z,12933.77344
2023-09-08T23:59:27.644Z,12681.10547
